F/V El Amanecer — FHKI — position and weather

sailwx.info

Track history (hours):
 
Tides and Currents Weather Stations Pressure Air Temp Water Temp Dewpoint Dewpoint Depression Visibility Wind Speed Wind Dir Waves Ship Positions

F/V El Amanecer

Last reported at 2017-Sep-19 23:53 UTC. Time now 2017-Sep-24 08:47 UTC.
Position N 47°40' W 008°04'.

Length 20 m; draft 3.5 m.

Type: Fishing. MMSI: 228157000.

Date/timePositionNaut miles runAvg speedWind from/ knotsBaromVisibWave heightAir tempDewpointWater temp
2017-Sep-19 23:53N 47°40' W 008°04'  
2017-Sep-11 20:01N 43°28' W 001°53'1 5.0
2017-Sep-11 19:48N 43°27' W 001°52'0 1.0
2017-Sep-11 19:29N 43°27' W 001°52'1 0.9
2017-Sep-11 18:46N 43°27' W 001°53'0 1.0
2017-Sep-11 18:29N 43°27' W 001°53'1 2.4
2017-Sep-11 17:56N 43°27' W 001°52'4 7.5
2017-Sep-11 17:27N 43°26' W 001°47'3 7.4
2017-Sep-11 17:00N 43°25' W 001°43'3 5.5
2017-Sep-11 16:30N 43°23' W 001°40'0 0.0
2017-Sep-11 16:00N 43°23' W 001°40'0 0.0
2017-Sep-11 15:30N 43°23' W 001°40'0 0.0
2017-Sep-11 15:00N 43°23' W 001°40'0 0.0
2017-Sep-11 14:30N 43°23' W 001°40'0 0.0
2017-Sep-11 14:00N 43°23' W 001°40'0 0.0
2017-Sep-11 13:30N 43°23' W 001°40'0 0.0
2017-Sep-11 13:00N 43°23' W 001°40'0 0.0
2017-Sep-11 12:30N 43°23' W 001°40'0 0.0
2017-Sep-11 12:00N 43°23' W 001°40'0 0.0
2017-Sep-11 11:30N 43°23' W 001°40'0 0.0
2017-Sep-11 11:00N 43°23' W 001°40'0 0.0
2017-Sep-11 10:30N 43°23' W 001°40'0 0.0
2017-Sep-11 10:00N 43°23' W 001°40'0 0.0
2017-Sep-11 09:30N 43°23' W 001°40'0 0.0
2017-Sep-11 09:00N 43°23' W 001°40'0 0.0
2017-Sep-11 08:30N 43°23' W 001°40'0 0.0
2017-Sep-11 08:00N 43°23' W 001°40'0 0.0
2017-Sep-11 07:30N 43°23' W 001°40'0 0.0
2017-Sep-11 07:00N 43°23' W 001°40'0 0.0
2017-Sep-11 06:30N 43°23' W 001°40'0 0.0
2017-Sep-11 06:00N 43°23' W 001°40'0 0.0
2017-Sep-11 05:30N 43°23' W 001°40'0 0.0
2017-Sep-11 05:00N 43°23' W 001°40'0 0.0
2017-Sep-11 04:30N 43°23' W 001°40'0 0.0
2017-Sep-11 04:00N 43°23' W 001°40'0 0.0
2017-Sep-11 03:30N 43°23' W 001°40'0 0.0
2017-Sep-11 03:00N 43°23' W 001°40'0 0.0
2017-Sep-11 02:30N 43°23' W 001°40'0 0.0
2017-Sep-11 02:00N 43°23' W 001°40'0 0.0
2017-Sep-11 01:30N 43°23' W 001°40'0 0.0
2017-Sep-11 01:00N 43°23' W 001°40'0 0.0
2017-Sep-11 00:30N 43°23' W 001°40'0 0.0
2017-Sep-11 00:00N 43°23' W 001°40'0 0.0
2017-Sep-10 23:30N 43°23' W 001°40'0 0.0
2017-Sep-10 23:00N 43°23' W 001°40'0 0.0
2017-Sep-10 22:30N 43°23' W 001°40'0 0.0
2017-Sep-10 22:00N 43°23' W 001°40'0 0.0
2017-Sep-10 21:30N 43°23' W 001°40'0 0.0
2017-Sep-10 21:00N 43°23' W 001°40'0 0.0
2017-Sep-10 20:30N 43°23' W 001°40'0 0.0
2017-Sep-10 20:00N 43°23' W 001°40'0 0.0
2017-Sep-10 19:30N 43°23' W 001°40'0 0.0
2017-Sep-10 19:00N 43°23' W 001°40'0 0.0
2017-Sep-10 18:30N 43°23' W 001°40'0 0.0
2017-Sep-10 18:00N 43°23' W 001°40'0 0.0
2017-Sep-10 17:30N 43°23' W 001°40'0 0.0
2017-Sep-10 17:00N 43°23' W 001°40'0 0.0
2017-Sep-10 16:30N 43°23' W 001°40'0 0.0
2017-Sep-10 16:00N 43°23' W 001°40'0 0.0
2017-Sep-10 15:30N 43°23' W 001°40'0 0.0
2017-Sep-10 15:00N 43°23' W 001°40'0 0.1
2017-Sep-10 13:59N 43°23' W 001°40'0 0.0
2017-Sep-10 13:24N 43°23' W 001°40'0 0.0
2017-Sep-10 12:54N 43°23' W 001°40'0 0.0
2017-Sep-10 12:30N 43°23' W 001°40'0 0.0
2017-Sep-10 12:00N 43°23' W 001°40'0 0.0
2017-Sep-10 11:12N 43°23' W 001°40'0 0.0
2017-Sep-10 11:00N 43°23' W 001°40'0 0.0
2017-Sep-10 10:30N 43°23' W 001°40'0 0.0
2017-Sep-10 10:00N 43°23' W 001°40'0 0.0
2017-Sep-10 09:30N 43°23' W 001°40'0 0.0
2017-Sep-10 09:00N 43°23' W 001°40'0 0.1
2017-Sep-10 08:29N 43°23' W 001°40'0 0.0
2017-Sep-10 07:59N 43°23' W 001°40'0 0.0
2017-Sep-10 07:30N 43°23' W 001°40'0 0.0
2017-Sep-10 07:00N 43°23' W 001°40'0 0.0
2017-Sep-10 06:30N 43°23' W 001°40'0 0.0
2017-Sep-10 06:00N 43°23' W 001°40'0 0.0
2017-Sep-10 05:30N 43°23' W 001°40'0 0.0
2017-Sep-10 05:00N 43°23' W 001°40'0 0.0
2017-Sep-10 04:30N 43°23' W 001°40'0 0.0
2017-Sep-10 04:00N 43°23' W 001°40'0 0.0
2017-Sep-10 03:30N 43°23' W 001°40'0 0.0
2017-Sep-10 03:00N 43°23' W 001°40'0 0.0
2017-Sep-10 02:30N 43°23' W 001°40'0 0.0
2017-Sep-10 02:00N 43°23' W 001°40'0 0.0
2017-Sep-10 01:29N 43°23' W 001°40'0 0.0
2017-Sep-10 00:54N 43°23' W 001°40'  
Track history (hours):
 
Tides and Currents Weather Stations Pressure Air Temp Water Temp Dewpoint Dewpoint Depression Visibility Wind Speed Wind Dir Waves Ship Positions

F/V El Amanecer

Last reported at 2017-Sep-19 23:53 UTC. Time now 2017-Sep-24 08:47 UTC.
Position N 47°40' W 008°04'.

Length 20 m; draft 3.5 m.

Type: Fishing. MMSI: 228157000.

Date/timePositionNaut miles runAvg speedWind from/ knotsBaromVisibWave heightAir tempDewpointWater temp
2017-Sep-19 23:53N 47°40' W 008°04'  
2017-Sep-11 20:01N 43°28' W 001°53'1 5.0
2017-Sep-11 19:48N 43°27' W 001°52'0 1.0
2017-Sep-11 19:29N 43°27' W 001°52'1 0.9
2017-Sep-11 18:46N 43°27' W 001°53'0 1.0
2017-Sep-11 18:29N 43°27' W 001°53'1 2.4
2017-Sep-11 17:56N 43°27' W 001°52'4 7.5
2017-Sep-11 17:27N 43°26' W 001°47'3 7.4
2017-Sep-11 17:00N 43°25' W 001°43'3 5.5
2017-Sep-11 16:30N 43°23' W 001°40'0 0.0
2017-Sep-11 16:00N 43°23' W 001°40'0 0.0
2017-Sep-11 15:30N 43°23' W 001°40'0 0.0
2017-Sep-11 15:00N 43°23' W 001°40'0 0.0
2017-Sep-11 14:30N 43°23' W 001°40'0 0.0
2017-Sep-11 14:00N 43°23' W 001°40'0 0.0
2017-Sep-11 13:30N 43°23' W 001°40'0 0.0
2017-Sep-11 13:00N 43°23' W 001°40'0 0.0
2017-Sep-11 12:30N 43°23' W 001°40'0 0.0
2017-Sep-11 12:00N 43°23' W 001°40'0 0.0
2017-Sep-11 11:30N 43°23' W 001°40'0 0.0
2017-Sep-11 11:00N 43°23' W 001°40'0 0.0
2017-Sep-11 10:30N 43°23' W 001°40'0 0.0
2017-Sep-11 10:00N 43°23' W 001°40'0 0.0
2017-Sep-11 09:30N 43°23' W 001°40'0 0.0
2017-Sep-11 09:00N 43°23' W 001°40'0 0.0
2017-Sep-11 08:30N 43°23' W 001°40'0 0.0
2017-Sep-11 08:00N 43°23' W 001°40'0 0.0
2017-Sep-11 07:30N 43°23' W 001°40'0 0.0
2017-Sep-11 07:00N 43°23' W 001°40'0 0.0
2017-Sep-11 06:30N 43°23' W 001°40'0 0.0
2017-Sep-11 06:00N 43°23' W 001°40'0 0.0
2017-Sep-11 05:30N 43°23' W 001°40'0 0.0
2017-Sep-11 05:00N 43°23' W 001°40'0 0.0
2017-Sep-11 04:30N 43°23' W 001°40'0 0.0
2017-Sep-11 04:00N 43°23' W 001°40'0 0.0
2017-Sep-11 03:30N 43°23' W 001°40'0 0.0
2017-Sep-11 03:00N 43°23' W 001°40'0 0.0
2017-Sep-11 02:30N 43°23' W 001°40'0 0.0
2017-Sep-11 02:00N 43°23' W 001°40'0 0.0
2017-Sep-11 01:30N 43°23' W 001°40'0 0.0
2017-Sep-11 01:00N 43°23' W 001°40'0 0.0
2017-Sep-11 00:30N 43°23' W 001°40'0 0.0
2017-Sep-11 00:00N 43°23' W 001°40'0 0.0
2017-Sep-10 23:30N 43°23' W 001°40'0 0.0
2017-Sep-10 23:00N 43°23' W 001°40'0 0.0
2017-Sep-10 22:30N 43°23' W 001°40'0 0.0
2017-Sep-10 22:00N 43°23' W 001°40'0 0.0
2017-Sep-10 21:30N 43°23' W 001°40'0 0.0
2017-Sep-10 21:00N 43°23' W 001°40'0 0.0
2017-Sep-10 20:30N 43°23' W 001°40'0 0.0
2017-Sep-10 20:00N 43°23' W 001°40'0 0.0
2017-Sep-10 19:30N 43°23' W 001°40'0 0.0
2017-Sep-10 19:00N 43°23' W 001°40'0 0.0
2017-Sep-10 18:30N 43°23' W 001°40'0 0.0
2017-Sep-10 18:00N 43°23' W 001°40'0 0.0
2017-Sep-10 17:30N 43°23' W 001°40'0 0.0
2017-Sep-10 17:00N 43°23' W 001°40'0 0.0
2017-Sep-10 16:30N 43°23' W 001°40'0 0.0
2017-Sep-10 16:00N 43°23' W 001°40'0 0.0
2017-Sep-10 15:30N 43°23' W 001°40'0 0.0
2017-Sep-10 15:00N 43°23' W 001°40'0 0.1
2017-Sep-10 13:59N 43°23' W 001°40'0 0.0
2017-Sep-10 13:24N 43°23' W 001°40'0 0.0
2017-Sep-10 12:54N 43°23' W 001°40'0 0.0
2017-Sep-10 12:30N 43°23' W 001°40'0 0.0
2017-Sep-10 12:00N 43°23' W 001°40'0 0.0
2017-Sep-10 11:12N 43°23' W 001°40'0 0.0
2017-Sep-10 11:00N 43°23' W 001°40'0 0.0
2017-Sep-10 10:30N 43°23' W 001°40'0 0.0
2017-Sep-10 10:00N 43°23' W 001°40'0 0.0
2017-Sep-10 09:30N 43°23' W 001°40'0 0.0
2017-Sep-10 09:00N 43°23' W 001°40'0 0.1
2017-Sep-10 08:29N 43°23' W 001°40'0 0.0
2017-Sep-10 07:59N 43°23' W 001°40'0 0.0
2017-Sep-10 07:30N 43°23' W 001°40'0 0.0
2017-Sep-10 07:00N 43°23' W 001°40'0 0.0
2017-Sep-10 06:30N 43°23' W 001°40'0 0.0
2017-Sep-10 06:00N 43°23' W 001°40'0 0.0
2017-Sep-10 05:30N 43°23' W 001°40'0 0.0
2017-Sep-10 05:00N 43°23' W 001°40'0 0.0
2017-Sep-10 04:30N 43°23' W 001°40'0 0.0
2017-Sep-10 04:00N 43°23' W 001°40'0 0.0
2017-Sep-10 03:30N 43°23' W 001°40'0 0.0
2017-Sep-10 03:00N 43°23' W 001°40'0 0.0
2017-Sep-10 02:30N 43°23' W 001°40'0 0.0
2017-Sep-10 02:00N 43°23' W 001°40'0 0.0
2017-Sep-10 01:29N 43°23' W 001°40'0 0.0
2017-Sep-10 00:54N 43°23' W 001°40'  

Dump ship's entire track history